sensor_id;sensor_type;location;lat;lon;timestamp;P1;durP1;ratioP1;P2;durP2;ratioP2
50010;SDS011;35899;50.352;19.390;2022-12-10T00:01:34;9.70;;;6.22;;
50010;SDS011;35899;50.352;19.390;2022-12-10T00:04:01;10.90;;;5.45;;
50010;SDS011;35899;50.352;19.390;2022-12-10T00:06:30;9.13;;;5.97;;
50010;SDS011;35899;50.352;19.390;2022-12-10T00:09:00;9.93;;;5.50;;
50010;SDS011;35899;50.352;19.390;2022-12-10T00:11:28;8.60;;;5.30;;
50010;SDS011;35899;50.352;19.390;2022-12-10T00:13:55;8.28;;;4.80;;
50010;SDS011;35899;50.352;19.390;2022-12-10T00:16:24;9.18;;;6.15;;
50010;SDS011;35899;50.352;19.390;2022-12-10T00:18:53;9.85;;;5.72;;
50010;SDS011;35899;50.352;19.390;2022-12-10T00:21:21;10.08;;;6.35;;
50010;SDS011;35899;50.352;19.390;2022-12-10T00:23:51;10.38;;;6.53;;
50010;SDS011;35899;50.352;19.390;2022-12-10T00:26:19;10.95;;;6.72;;
50010;SDS011;35899;50.352;19.390;2022-12-10T00:28:51;13.10;;;7.10;;
50010;SDS011;35899;50.352;19.390;2022-12-10T00:31:19;12.28;;;7.55;;
50010;SDS011;35899;50.352;19.390;2022-12-10T00:33:52;14.18;;;8.18;;
50010;SDS011;35899;50.352;19.390;2022-12-10T00:36:21;13.35;;;8.50;;
50010;SDS011;35899;50.352;19.390;2022-12-10T00:38:51;13.78;;;7.47;;
50010;SDS011;35899;50.352;19.390;2022-12-10T00:41:18;13.95;;;7.95;;
50010;SDS011;35899;50.352;19.390;2022-12-10T00:43:46;12.40;;;8.40;;
50010;SDS011;35899;50.352;19.390;2022-12-10T00:46:14;14.93;;;8.90;;
50010;SDS011;35899;50.352;19.390;2022-12-10T00:48:41;14.60;;;9.40;;
50010;SDS011;35899;50.352;19.390;2022-12-10T00:51:09;18.37;;;9.43;;
50010;SDS011;35899;50.352;19.390;2022-12-10T00:53:43;16.52;;;9.43;;
50010;SDS011;35899;50.352;19.390;2022-12-10T00:56:12;15.90;;;9.15;;
50010;SDS011;35899;50.352;19.390;2022-12-10T00:58:41;14.43;;;8.53;;
50010;SDS011;35899;50.352;19.390;2022-12-10T01:03:40;15.90;;;9.35;;
50010;SDS011;35899;50.352;19.390;2022-12-10T01:06:17;14.93;;;9.18;;
50010;SDS011;35899;50.352;19.390;2022-12-10T01:11:19;18.05;;;9.93;;
50010;SDS011;35899;50.352;19.390;2022-12-10T01:13:47;15.83;;;8.93;;
50010;SDS011;35899;50.352;19.390;2022-12-10T01:16:17;14.83;;;8.45;;
50010;SDS011;35899;50.352;19.390;2022-12-10T01:18:44;14.87;;;8.95;;
50010;SDS011;35899;50.352;19.390;2022-12-10T01:21:14;15.72;;;9.78;;
50010;SDS011;35899;50.352;19.390;2022-12-10T01:23:43;17.30;;;10.55;;
50010;SDS011;35899;50.352;19.390;2022-12-10T01:26:13;16.67;;;9.23;;
50010;SDS011;35899;50.352;19.390;2022-12-10T01:28:43;15.28;;;10.18;;
50010;SDS011;35899;50.352;19.390;2022-12-10T01:31:14;14.65;;;9.60;;
50010;SDS011;35899;50.352;19.390;2022-12-10T01:33:47;14.03;;;8.03;;
50010;SDS011;35899;50.352;19.390;2022-12-10T01:36:24;14.25;;;9.03;;
50010;SDS011;35899;50.352;19.390;2022-12-10T01:38:49;16.42;;;10.32;;
50010;SDS011;35899;50.352;19.390;2022-12-10T01:41:19;15.95;;;9.65;;
50010;SDS011;35899;50.352;19.390;2022-12-10T01:43:59;14.15;;;8.73;;
50010;SDS011;35899;50.352;19.390;2022-12-10T01:46:30;14.07;;;9.18;;
50010;SDS011;35899;50.352;19.390;2022-12-10T01:48:59;16.40;;;9.55;;
50010;SDS011;35899;50.352;19.390;2022-12-10T01:51:29;17.67;;;10.25;;
50010;SDS011;35899;50.352;19.390;2022-12-10T01:53:59;18.10;;;10.82;;
50010;SDS011;35899;50.352;19.390;2022-12-10T01:56:27;16.40;;;9.95;;
50010;SDS011;35899;50.352;19.390;2022-12-10T01:58:55;18.45;;;10.28;;
50010;SDS011;35899;50.352;19.390;2022-12-10T02:04:10;21.10;;;11.80;;
50010;SDS011;35899;50.352;19.390;2022-12-10T02:20:10;17.35;;;9.73;;
50010;SDS011;35899;50.352;19.390;2022-12-10T02:22:54;15.30;;;9.13;;
50010;SDS011;35899;50.352;19.390;2022-12-10T02:25:30;15.13;;;8.50;;
50010;SDS011;35899;50.352;19.390;2022-12-10T02:28:10;14.80;;;8.65;;
50010;SDS011;35899;50.352;19.390;2022-12-10T02:30:50;17.45;;;10.60;;
50010;SDS011;35899;50.352;19.390;2022-12-10T02:33:20;15.45;;;9.08;;
50010;SDS011;35899;50.352;19.390;2022-12-10T02:35:49;16.70;;;10.18;;
50010;SDS011;35899;50.352;19.390;2022-12-10T02:38:19;17.23;;;9.63;;
50010;SDS011;35899;50.352;19.390;2022-12-10T02:41:01;16.87;;;9.53;;
50010;SDS011;35899;50.352;19.390;2022-12-10T02:43:31;16.32;;;9.60;;
50010;SDS011;35899;50.352;19.390;2022-12-10T02:45:59;13.95;;;9.05;;
50010;SDS011;35899;50.352;19.390;2022-12-10T02:48:29;13.60;;;8.28;;
50010;SDS011;35899;50.352;19.390;2022-12-10T02:50:57;11.73;;;6.95;;
50010;SDS011;35899;50.352;19.390;2022-12-10T02:53:24;14.00;;;9.00;;
50010;SDS011;35899;50.352;19.390;2022-12-10T02:55:55;12.75;;;8.08;;
50010;SDS011;35899;50.352;19.390;2022-12-10T03:01:54;15.15;;;8.48;;
50010;SDS011;35899;50.352;19.390;2022-12-10T03:04:36;14.78;;;9.43;;
50010;SDS011;35899;50.352;19.390;2022-12-10T03:07:18;14.07;;;8.80;;
50010;SDS011;35899;50.352;19.390;2022-12-10T03:09:51;16.05;;;8.95;;
50010;SDS011;35899;50.352;19.390;2022-12-10T03:12:19;16.05;;;9.40;;
50010;SDS011;35899;50.352;19.390;2022-12-10T03:14:52;14.40;;;9.18;;
50010;SDS011;35899;50.352;19.390;2022-12-10T03:17:24;14.83;;;9.30;;
50010;SDS011;35899;50.352;19.390;2022-12-10T03:19:53;14.68;;;9.03;;
50010;SDS011;35899;50.352;19.390;2022-12-10T03:22:21;15.13;;;9.08;;
50010;SDS011;35899;50.352;19.390;2022-12-10T03:24:48;13.62;;;8.35;;
50010;SDS011;35899;50.352;19.390;2022-12-10T03:27:15;11.70;;;7.60;;
50010;SDS011;35899;50.352;19.390;2022-12-10T03:29:46;14.28;;;8.78;;
50010;SDS011;35899;50.352;19.390;2022-12-10T03:32:16;13.70;;;8.88;;
50010;SDS011;35899;50.352;19.390;2022-12-10T03:34:46;13.80;;;7.90;;
50010;SDS011;35899;50.352;19.390;2022-12-10T03:37:15;13.05;;;8.35;;
50010;SDS011;35899;50.352;19.390;2022-12-10T03:39:41;14.70;;;8.70;;
50010;SDS011;35899;50.352;19.390;2022-12-10T03:42:09;15.35;;;9.35;;
50010;SDS011;35899;50.352;19.390;2022-12-10T03:44:36;15.72;;;7.92;;
50010;SDS011;35899;50.352;19.390;2022-12-10T03:47:04;16.77;;;9.60;;
50010;SDS011;35899;50.352;19.390;2022-12-10T03:49:34;14.95;;;9.03;;
50010;SDS011;35899;50.352;19.390;2022-12-10T03:52:00;17.17;;;9.98;;
50010;SDS011;35899;50.352;19.390;2022-12-10T03:54:27;15.43;;;9.25;;
50010;SDS011;35899;50.352;19.390;2022-12-10T03:56:53;16.02;;;9.73;;
50010;SDS011;35899;50.352;19.390;2022-12-10T03:59:20;14.55;;;9.15;;
50010;SDS011;35899;50.352;19.390;2022-12-10T04:01:46;15.78;;;9.58;;
50010;SDS011;35899;50.352;19.390;2022-12-10T04:04:13;17.65;;;9.95;;
50010;SDS011;35899;50.352;19.390;2022-12-10T04:06:40;16.48;;;9.65;;
50010;SDS011;35899;50.352;19.390;2022-12-10T04:09:11;18.67;;;10.55;;
50010;SDS011;35899;50.352;19.390;2022-12-10T04:14:09;16.00;;;9.88;;
50010;SDS011;35899;50.352;19.390;2022-12-10T04:16:40;17.25;;;10.20;;
50010;SDS011;35899;50.352;19.390;2022-12-10T04:19:07;17.05;;;10.13;;
50010;SDS011;35899;50.352;19.390;2022-12-10T04:21:37;16.10;;;9.60;;
50010;SDS011;35899;50.352;19.390;2022-12-10T04:24:11;16.30;;;9.25;;
50010;SDS011;35899;50.352;19.390;2022-12-10T04:26:36;18.07;;;10.20;;
50010;SDS011;35899;50.352;19.390;2022-12-10T04:29:02;17.95;;;10.00;;
50010;SDS011;35899;50.352;19.390;2022-12-10T04:31:29;17.85;;;10.63;;
50010;SDS011;35899;50.352;19.390;2022-12-10T04:33:56;19.50;;;11.25;;
50010;SDS011;35899;50.352;19.390;2022-12-10T04:36:22;18.07;;;10.20;;
50010;SDS011;35899;50.352;19.390;2022-12-10T04:38:48;17.85;;;11.00;;
50010;SDS011;35899;50.352;19.390;2022-12-10T04:41:15;19.20;;;11.25;;
50010;SDS011;35899;50.352;19.390;2022-12-10T04:43:41;18.25;;;10.60;;
50010;SDS011;35899;50.352;19.390;2022-12-10T04:46:09;18.37;;;11.30;;
50010;SDS011;35899;50.352;19.390;2022-12-10T04:48:38;19.48;;;11.60;;
50010;SDS011;35899;50.352;19.390;2022-12-10T04:51:04;16.82;;;10.18;;
50010;SDS011;35899;50.352;19.390;2022-12-10T04:53:31;19.17;;;11.03;;
50010;SDS011;35899;50.352;19.390;2022-12-10T04:55:57;21.20;;;12.23;;
50010;SDS011;35899;50.352;19.390;2022-12-10T04:58:24;20.25;;;11.65;;
50010;SDS011;35899;50.352;19.390;2022-12-10T05:00:50;21.93;;;13.13;;
50010;SDS011;35899;50.352;19.390;2022-12-10T05:03:16;19.67;;;11.57;;
50010;SDS011;35899;50.352;19.390;2022-12-10T05:05:43;22.37;;;12.47;;
50010;SDS011;35899;50.352;19.390;2022-12-10T05:08:09;21.82;;;12.68;;
50010;SDS011;35899;50.352;19.390;2022-12-10T05:10:35;22.30;;;12.65;;
50010;SDS011;35899;50.352;19.390;2022-12-10T05:13:02;20.60;;;11.35;;
50010;SDS011;35899;50.352;19.390;2022-12-10T05:15:28;22.17;;;12.75;;
50010;SDS011;35899;50.352;19.390;2022-12-10T05:17:54;24.45;;;13.53;;
50010;SDS011;35899;50.352;19.390;2022-12-10T05:20:21;24.00;;;13.22;;
50010;SDS011;35899;50.352;19.390;2022-12-10T05:22:47;22.50;;;12.23;;
50010;SDS011;35899;50.352;19.390;2022-12-10T05:25:14;26.85;;;14.60;;
50010;SDS011;35899;50.352;19.390;2022-12-10T05:27:40;23.85;;;13.18;;
50010;SDS011;35899;50.352;19.390;2022-12-10T05:30:07;23.83;;;12.60;;
50010;SDS011;35899;50.352;19.390;2022-12-10T05:32:35;26.10;;;13.78;;
50010;SDS011;35899;50.352;19.390;2022-12-10T05:35:02;21.48;;;11.83;;
50010;SDS011;35899;50.352;19.390;2022-12-10T05:37:31;22.52;;;12.53;;
50010;SDS011;35899;50.352;19.390;2022-12-10T05:39:57;25.10;;;13.58;;
50010;SDS011;35899;50.352;19.390;2022-12-10T05:42:24;22.15;;;12.13;;
50010;SDS011;35899;50.352;19.390;2022-12-10T05:44:50;22.45;;;12.70;;
50010;SDS011;35899;50.352;19.390;2022-12-10T05:47:16;25.65;;;14.40;;
50010;SDS011;35899;50.352;19.390;2022-12-10T05:49:43;22.30;;;12.90;;
50010;SDS011;35899;50.352;19.390;2022-12-10T05:52:09;24.95;;;14.23;;
50010;SDS011;35899;50.352;19.390;2022-12-10T05:54:35;23.87;;;12.58;;
50010;SDS011;35899;50.352;19.390;2022-12-10T05:57:02;26.00;;;14.00;;
50010;SDS011;35899;50.352;19.390;2022-12-10T05:59:29;22.40;;;12.55;;
50010;SDS011;35899;50.352;19.390;2022-12-10T06:01:55;24.90;;;13.03;;
50010;SDS011;35899;50.352;19.390;2022-12-10T06:04:21;21.85;;;11.78;;
50010;SDS011;35899;50.352;19.390;2022-12-10T06:06:51;23.62;;;12.60;;
50010;SDS011;35899;50.352;19.390;2022-12-10T06:09:17;23.25;;;12.43;;
50010;SDS011;35899;50.352;19.390;2022-12-10T06:11:44;20.80;;;12.15;;
50010;SDS011;35899;50.352;19.390;2022-12-10T06:14:10;22.87;;;12.68;;
50010;SDS011;35899;50.352;19.390;2022-12-10T06:16:38;20.30;;;11.75;;
50010;SDS011;35899;50.352;19.390;2022-12-10T06:19:05;22.70;;;12.95;;
50010;SDS011;35899;50.352;19.390;2022-12-10T06:21:31;21.75;;;12.00;;
50010;SDS011;35899;50.352;19.390;2022-12-10T06:23:57;22.95;;;12.03;;
50010;SDS011;35899;50.352;19.390;2022-12-10T06:26:25;19.75;;;11.12;;
50010;SDS011;35899;50.352;19.390;2022-12-10T06:28:52;20.02;;;10.75;;
50010;SDS011;35899;50.352;19.390;2022-12-10T06:31:19;19.90;;;11.53;;
50010;SDS011;35899;50.352;19.390;2022-12-10T06:33:46;17.45;;;10.95;;
50010;SDS011;35899;50.352;19.390;2022-12-10T06:36:14;20.17;;;11.45;;
50010;SDS011;35899;50.352;19.390;2022-12-10T06:38:42;20.10;;;11.30;;
50010;SDS011;35899;50.352;19.390;2022-12-10T06:41:09;19.27;;;10.78;;
50010;SDS011;35899;50.352;19.390;2022-12-10T06:43:38;18.30;;;10.40;;
50010;SDS011;35899;50.352;19.390;2022-12-10T06:46:08;18.05;;;10.63;;
50010;SDS011;35899;50.352;19.390;2022-12-10T06:48:40;14.90;;;8.98;;
50010;SDS011;35899;50.352;19.390;2022-12-10T06:51:08;17.00;;;9.90;;
50010;SDS011;35899;50.352;19.390;2022-12-10T06:53:36;16.30;;;9.28;;
50010;SDS011;35899;50.352;19.390;2022-12-10T06:56:05;17.65;;;9.80;;
50010;SDS011;35899;50.352;19.390;2022-12-10T06:58:33;16.05;;;9.80;;
50010;SDS011;35899;50.352;19.390;2022-12-10T07:03:34;19.15;;;10.32;;
50010;SDS011;35899;50.352;19.390;2022-12-10T07:06:02;17.67;;;10.90;;
50010;SDS011;35899;50.352;19.390;2022-12-10T07:08:31;16.12;;;9.30;;
50010;SDS011;35899;50.352;19.390;2022-12-10T07:10:57;14.18;;;8.48;;
50010;SDS011;35899;50.352;19.390;2022-12-10T07:13:24;15.13;;;9.28;;
50010;SDS011;35899;50.352;19.390;2022-12-10T07:15:51;18.10;;;9.65;;
50010;SDS011;35899;50.352;19.390;2022-12-10T07:18:18;13.83;;;8.20;;
50010;SDS011;35899;50.352;19.390;2022-12-10T07:20:46;15.03;;;9.05;;
50010;SDS011;35899;50.352;19.390;2022-12-10T07:23:13;16.97;;;9.15;;
50010;SDS011;35899;50.352;19.390;2022-12-10T07:25:40;13.40;;;8.13;;
50010;SDS011;35899;50.352;19.390;2022-12-10T07:28:06;15.08;;;9.15;;
50010;SDS011;35899;50.352;19.390;2022-12-10T07:30:32;18.32;;;9.60;;
50010;SDS011;35899;50.352;19.390;2022-12-10T07:32:59;14.43;;;8.43;;
50010;SDS011;35899;50.352;19.390;2022-12-10T07:35:25;15.75;;;8.85;;
50010;SDS011;35899;50.352;19.390;2022-12-10T07:37:52;16.27;;;9.63;;
50010;SDS011;35899;50.352;19.390;2022-12-10T07:40:18;17.45;;;10.10;;
50010;SDS011;35899;50.352;19.390;2022-12-10T07:42:45;19.12;;;10.40;;
50010;SDS011;35899;50.352;19.390;2022-12-10T07:45:11;16.80;;;9.63;;
50010;SDS011;35899;50.352;19.390;2022-12-10T07:47:39;15.35;;;9.48;;
50010;SDS011;35899;50.352;19.390;2022-12-10T07:50:05;16.93;;;10.25;;
50010;SDS011;35899;50.352;19.390;2022-12-10T07:52:33;16.80;;;9.90;;
50010;SDS011;35899;50.352;19.390;2022-12-10T07:54:59;17.27;;;9.55;;
50010;SDS011;35899;50.352;19.390;2022-12-10T07:57:27;16.45;;;10.13;;
50010;SDS011;35899;50.352;19.390;2022-12-10T07:59:54;18.12;;;11.10;;
50010;SDS011;35899;50.352;19.390;2022-12-10T08:02:21;19.92;;;11.20;;
50010;SDS011;35899;50.352;19.390;2022-12-10T08:04:47;19.30;;;11.15;;
50010;SDS011;35899;50.352;19.390;2022-12-10T08:07:13;18.77;;;10.93;;
50010;SDS011;35899;50.352;19.390;2022-12-10T08:09:40;21.17;;;11.53;;
50010;SDS011;35899;50.352;19.390;2022-12-10T08:12:06;20.65;;;11.95;;
50010;SDS011;35899;50.352;19.390;2022-12-10T08:14:33;21.33;;;11.48;;
50010;SDS011;35899;50.352;19.390;2022-12-10T08:16:59;22.67;;;12.40;;
50010;SDS011;35899;50.352;19.390;2022-12-10T08:19:25;21.00;;;11.55;;
50010;SDS011;35899;50.352;19.390;2022-12-10T08:21:52;23.30;;;12.75;;
50010;SDS011;35899;50.352;19.390;2022-12-10T08:24:18;23.30;;;13.13;;
50010;SDS011;35899;50.352;19.390;2022-12-10T08:26:44;21.07;;;11.97;;
50010;SDS011;35899;50.352;19.390;2022-12-10T08:29:11;22.77;;;12.35;;
50010;SDS011;35899;50.352;19.390;2022-12-10T08:31:37;21.33;;;12.43;;
50010;SDS011;35899;50.352;19.390;2022-12-10T08:34:04;24.30;;;13.20;;
50010;SDS011;35899;50.352;19.390;2022-12-10T08:39:04;26.85;;;13.32;;
50010;SDS011;35899;50.352;19.390;2022-12-10T08:41:30;26.20;;;12.95;;
50010;SDS011;35899;50.352;19.390;2022-12-10T08:43:56;22.15;;;12.53;;
50010;SDS011;35899;50.352;19.390;2022-12-10T08:46:23;20.97;;;12.65;;
50010;SDS011;35899;50.352;19.390;2022-12-10T08:48:50;22.40;;;12.28;;
50010;SDS011;35899;50.352;19.390;2022-12-10T08:51:17;21.42;;;11.63;;
50010;SDS011;35899;50.352;19.390;2022-12-10T08:53:45;23.12;;;12.58;;
50010;SDS011;35899;50.352;19.390;2022-12-10T08:56:11;25.48;;;13.50;;
50010;SDS011;35899;50.352;19.390;2022-12-10T08:58:39;25.43;;;13.83;;
50010;SDS011;35899;50.352;19.390;2022-12-10T09:01:09;24.50;;;13.03;;
50010;SDS011;35899;50.352;19.390;2022-12-10T09:03:39;28.02;;;14.58;;
50010;SDS011;35899;50.352;19.390;2022-12-10T09:06:06;24.10;;;13.08;;
50010;SDS011;35899;50.352;19.390;2022-12-10T09:08:36;25.95;;;12.88;;
50010;SDS011;35899;50.352;19.390;2022-12-10T09:11:06;28.55;;;14.58;;
50010;SDS011;35899;50.352;19.390;2022-12-10T09:13:42;28.38;;;13.13;;
50010;SDS011;35899;50.352;19.390;2022-12-10T09:16:09;27.42;;;14.85;;
50010;SDS011;35899;50.352;19.390;2022-12-10T09:18:36;27.62;;;14.13;;
50010;SDS011;35899;50.352;19.390;2022-12-10T09:21:06;30.35;;;14.70;;
50010;SDS011;35899;50.352;19.390;2022-12-10T09:23:35;32.80;;;14.95;;
50010;SDS011;35899;50.352;19.390;2022-12-10T09:26:04;36.00;;;16.77;;
50010;SDS011;35899;50.352;19.390;2022-12-10T09:28:35;30.65;;;13.95;;
50010;SDS011;35899;50.352;19.390;2022-12-10T09:31:02;33.10;;;15.85;;
50010;SDS011;35899;50.352;19.390;2022-12-10T09:33:31;33.35;;;16.55;;
50010;SDS011;35899;50.352;19.390;2022-12-10T09:35:59;34.83;;;16.67;;
50010;SDS011;35899;50.352;19.390;2022-12-10T09:38:25;37.83;;;16.95;;
50010;SDS011;35899;50.352;19.390;2022-12-10T09:47:15;33.78;;;14.63;;
50010;SDS011;35899;50.352;19.390;2022-12-10T09:52:21;39.80;;;18.15;;
50010;SDS011;35899;50.352;19.390;2022-12-10T09:54:52;35.63;;;17.48;;
50010;SDS011;35899;50.352;19.390;2022-12-10T09:57:25;40.60;;;17.23;;
50010;SDS011;35899;50.352;19.390;2022-12-10T10:02:45;44.55;;;18.23;;
50010;SDS011;35899;50.352;19.390;2022-12-10T10:05:22;42.25;;;16.65;;
50010;SDS011;35899;50.352;19.390;2022-12-10T10:07:58;47.03;;;19.62;;
50010;SDS011;35899;50.352;19.390;2022-12-10T10:10:31;44.30;;;17.52;;
50010;SDS011;35899;50.352;19.390;2022-12-10T10:15:53;44.03;;;17.67;;
50010;SDS011;35899;50.352;19.390;2022-12-10T10:18:23;47.33;;;19.55;;
50010;SDS011;35899;50.352;19.390;2022-12-10T10:21:01;34.38;;;15.08;;
50010;SDS011;35899;50.352;19.390;2022-12-10T10:23:27;47.23;;;19.07;;
50010;SDS011;35899;50.352;19.390;2022-12-10T10:25:54;47.62;;;18.98;;
50010;SDS011;35899;50.352;19.390;2022-12-10T10:28:21;45.23;;;18.52;;
50010;SDS011;35899;50.352;19.390;2022-12-10T10:30:48;47.65;;;19.27;;
50010;SDS011;35899;50.352;19.390;2022-12-10T10:33:17;45.05;;;18.30;;
50010;SDS011;35899;50.352;19.390;2022-12-10T10:35:54;48.02;;;19.62;;
50010;SDS011;35899;50.352;19.390;2022-12-10T10:38:23;43.33;;;18.35;;
50010;SDS011;35899;50.352;19.390;2022-12-10T10:40:57;51.48;;;19.70;;
50010;SDS011;35899;50.352;19.390;2022-12-10T10:43:34;51.45;;;19.15;;
50010;SDS011;35899;50.352;19.390;2022-12-10T10:46:12;44.25;;;18.27;;
50010;SDS011;35899;50.352;19.390;2022-12-10T10:48:47;48.35;;;18.60;;
50010;SDS011;35899;50.352;19.390;2022-12-10T10:53:49;46.58;;;18.00;;
50010;SDS011;35899;50.352;19.390;2022-12-10T10:56:24;51.23;;;19.32;;
50010;SDS011;35899;50.352;19.390;2022-12-10T11:01:26;42.17;;;15.83;;
50010;SDS011;35899;50.352;19.390;2022-12-10T11:04:13;47.98;;;18.98;;
50010;SDS011;35899;50.352;19.390;2022-12-10T11:06:42;44.50;;;16.40;;
50010;SDS011;35899;50.352;19.390;2022-12-10T11:09:15;53.55;;;19.87;;
50010;SDS011;35899;50.352;19.390;2022-12-10T11:12:07;52.38;;;19.60;;
50010;SDS011;35899;50.352;19.390;2022-12-10T11:14:46;52.15;;;19.98;;
50010;SDS011;35899;50.352;19.390;2022-12-10T11:17:20;54.67;;;20.82;;
50010;SDS011;35899;50.352;19.390;2022-12-10T11:20:12;60.28;;;20.27;;
50010;SDS011;35899;50.352;19.390;2022-12-10T11:22:51;52.83;;;19.70;;
50010;SDS011;35899;50.352;19.390;2022-12-10T11:25:24;53.20;;;19.70;;
50010;SDS011;35899;50.352;19.390;2022-12-10T11:34:02;55.17;;;19.48;;
50010;SDS011;35899;50.352;19.390;2022-12-10T11:37:10;53.68;;;19.77;;
50010;SDS011;35899;50.352;19.390;2022-12-10T11:45:13;45.90;;;18.73;;
50010;SDS011;35899;50.352;19.390;2022-12-10T11:48:29;52.48;;;19.20;;
50010;SDS011;35899;50.352;19.390;2022-12-10T11:51:19;49.55;;;19.52;;
50010;SDS011;35899;50.352;19.390;2022-12-10T11:56:47;52.35;;;19.87;;
50010;SDS011;35899;50.352;19.390;2022-12-10T11:59:35;49.80;;;18.00;;
50010;SDS011;35899;50.352;19.390;2022-12-10T12:03:17;51.77;;;18.70;;
50010;SDS011;35899;50.352;19.390;2022-12-10T12:07:55;52.27;;;19.75;;
50010;SDS011;35899;50.352;19.390;2022-12-10T12:13:24;52.13;;;18.87;;
50010;SDS011;35899;50.352;19.390;2022-12-10T12:16:11;59.90;;;20.25;;
50010;SDS011;35899;50.352;19.390;2022-12-10T12:21:22;49.25;;;17.17;;
50010;SDS011;35899;50.352;19.390;2022-12-10T12:26:36;58.50;;;19.73;;
50010;SDS011;35899;50.352;19.390;2022-12-10T12:31:57;58.23;;;21.17;;
50010;SDS011;35899;50.352;19.390;2022-12-10T12:34:49;61.88;;;22.32;;
50010;SDS011;35899;50.352;19.390;2022-12-10T12:37:24;62.17;;;22.25;;
50010;SDS011;35899;50.352;19.390;2022-12-10T12:42:35;57.60;;;20.17;;
50010;SDS011;35899;50.352;19.390;2022-12-10T12:48:14;55.17;;;20.50;;
50010;SDS011;35899;50.352;19.390;2022-12-10T12:51:09;48.87;;;19.23;;
50010;SDS011;35899;50.352;19.390;2022-12-10T12:54:27;51.70;;;18.40;;
50010;SDS011;35899;50.352;19.390;2022-12-10T13:05:30;60.40;;;18.62;;
50010;SDS011;35899;50.352;19.390;2022-12-10T13:10:50;55.20;;;19.57;;
50010;SDS011;35899;50.352;19.390;2022-12-10T13:13:39;48.45;;;17.90;;
50010;SDS011;35899;50.352;19.390;2022-12-10T13:16:34;53.78;;;19.10;;
50010;SDS011;35899;50.352;19.390;2022-12-10T13:29:58;59.85;;;19.87;;
50010;SDS011;35899;50.352;19.390;2022-12-10T13:49:00;58.45;;;20.90;;
50010;SDS011;35899;50.352;19.390;2022-12-10T13:57:21;58.87;;;20.35;;
50010;SDS011;35899;50.352;19.390;2022-12-10T14:08:21;52.58;;;18.90;;
50010;SDS011;35899;50.352;19.390;2022-12-10T14:10:51;62.40;;;20.48;;
50010;SDS011;35899;50.352;19.390;2022-12-10T14:13:19;73.67;;;22.73;;
50010;SDS011;35899;50.352;19.390;2022-12-10T14:15:54;66.33;;;21.42;;
50010;SDS011;35899;50.352;19.390;2022-12-10T14:18:23;58.02;;;20.30;;
50010;SDS011;35899;50.352;19.390;2022-12-10T14:20:52;52.62;;;20.27;;
50010;SDS011;35899;50.352;19.390;2022-12-10T14:23:22;50.33;;;18.35;;
50010;SDS011;35899;50.352;19.390;2022-12-10T14:25:57;58.15;;;21.55;;
50010;SDS011;35899;50.352;19.390;2022-12-10T14:28:23;47.13;;;18.98;;
50010;SDS011;35899;50.352;19.390;2022-12-10T14:30:51;44.23;;;18.20;;
50010;SDS011;35899;50.352;19.390;2022-12-10T14:33:18;51.70;;;19.37;;
50010;SDS011;35899;50.352;19.390;2022-12-10T14:35:48;48.90;;;18.92;;
50010;SDS011;35899;50.352;19.390;2022-12-10T14:38:17;50.88;;;18.30;;
50010;SDS011;35899;50.352;19.390;2022-12-10T14:40:47;48.78;;;18.55;;
50010;SDS011;35899;50.352;19.390;2022-12-10T14:43:18;48.75;;;19.07;;
50010;SDS011;35899;50.352;19.390;2022-12-10T14:45:53;53.80;;;20.12;;
50010;SDS011;35899;50.352;19.390;2022-12-10T14:48:26;43.58;;;16.90;;
50010;SDS011;35899;50.352;19.390;2022-12-10T14:50:52;45.08;;;18.07;;
50010;SDS011;35899;50.352;19.390;2022-12-10T14:53:20;39.60;;;17.98;;
50010;SDS011;35899;50.352;19.390;2022-12-10T14:55:53;48.15;;;18.42;;
50010;SDS011;35899;50.352;19.390;2022-12-10T14:58:35;44.33;;;17.60;;
50010;SDS011;35899;50.352;19.390;2022-12-10T15:00:58;44.88;;;16.52;;
50010;SDS011;35899;50.352;19.390;2022-12-10T15:03:32;47.88;;;18.07;;
50010;SDS011;35899;50.352;19.390;2022-12-10T15:05:59;45.88;;;15.83;;
50010;SDS011;35899;50.352;19.390;2022-12-10T15:08:28;50.03;;;18.40;;
50010;SDS011;35899;50.352;19.390;2022-12-10T15:10:56;51.18;;;19.15;;
50010;SDS011;35899;50.352;19.390;2022-12-10T15:13:47;52.48;;;20.25;;
50010;SDS011;35899;50.352;19.390;2022-12-10T15:16:06;52.23;;;19.70;;
50010;SDS011;35899;50.352;19.390;2022-12-10T15:18:45;46.18;;;17.77;;
50010;SDS011;35899;50.352;19.390;2022-12-10T15:21:14;57.83;;;20.48;;
50010;SDS011;35899;50.352;19.390;2022-12-10T15:23:48;43.78;;;17.37;;
50010;SDS011;35899;50.352;19.390;2022-12-10T15:26:19;45.98;;;18.40;;
50010;SDS011;35899;50.352;19.390;2022-12-10T15:28:49;55.33;;;20.35;;
50010;SDS011;35899;50.352;19.390;2022-12-10T15:34:00;55.67;;;19.12;;
50010;SDS011;35899;50.352;19.390;2022-12-10T15:39:12;52.78;;;19.17;;
50010;SDS011;35899;50.352;19.390;2022-12-10T15:41:43;54.85;;;19.30;;
50010;SDS011;35899;50.352;19.390;2022-12-10T15:47:20;56.75;;;19.17;;
50010;SDS011;35899;50.352;19.390;2022-12-10T15:49:51;52.93;;;19.57;;
50010;SDS011;35899;50.352;19.390;2022-12-10T15:52:28;43.83;;;16.90;;
50010;SDS011;35899;50.352;19.390;2022-12-10T15:54:56;40.20;;;15.90;;
50010;SDS011;35899;50.352;19.390;2022-12-10T15:57:26;47.13;;;17.80;;
50010;SDS011;35899;50.352;19.390;2022-12-10T15:59:58;44.05;;;16.45;;
50010;SDS011;35899;50.352;19.390;2022-12-10T16:02:45;50.25;;;17.57;;
50010;SDS011;35899;50.352;19.390;2022-12-10T16:08:13;42.90;;;16.32;;
50010;SDS011;35899;50.352;19.390;2022-12-10T16:10:51;42.62;;;16.17;;
50010;SDS011;35899;50.352;19.390;2022-12-10T16:13:20;42.55;;;15.63;;
50010;SDS011;35899;50.352;19.390;2022-12-10T16:15:58;43.68;;;17.15;;
50010;SDS011;35899;50.352;19.390;2022-12-10T16:18:29;49.58;;;17.42;;
50010;SDS011;35899;50.352;19.390;2022-12-10T16:20:57;50.63;;;18.65;;
50010;SDS011;35899;50.352;19.390;2022-12-10T16:23:23;50.23;;;18.90;;
50010;SDS011;35899;50.352;19.390;2022-12-10T16:25:53;48.35;;;17.62;;
50010;SDS011;35899;50.352;19.390;2022-12-10T16:28:20;47.50;;;17.98;;
50010;SDS011;35899;50.352;19.390;2022-12-10T16:33:20;43.00;;;17.15;;
50010;SDS011;35899;50.352;19.390;2022-12-10T16:35:50;40.58;;;16.27;;
50010;SDS011;35899;50.352;19.390;2022-12-10T16:38:18;40.80;;;17.12;;
50010;SDS011;35899;50.352;19.390;2022-12-10T16:40:46;43.25;;;17.25;;
50010;SDS011;35899;50.352;19.390;2022-12-10T16:43:14;35.20;;;14.87;;
50010;SDS011;35899;50.352;19.390;2022-12-10T16:45:44;41.75;;;16.75;;
50010;SDS011;35899;50.352;19.390;2022-12-10T16:48:10;37.95;;;15.53;;
50010;SDS011;35899;50.352;19.390;2022-12-10T16:50:37;43.80;;;17.10;;
50010;SDS011;35899;50.352;19.390;2022-12-10T16:55:46;46.98;;;17.77;;
50010;SDS011;35899;50.352;19.390;2022-12-10T16:58:13;40.50;;;16.30;;
50010;SDS011;35899;50.352;19.390;2022-12-10T17:00:41;43.35;;;17.52;;
50010;SDS011;35899;50.352;19.390;2022-12-10T17:03:10;45.78;;;17.70;;
50010;SDS011;35899;50.352;19.390;2022-12-10T17:05:39;41.23;;;16.00;;
50010;SDS011;35899;50.352;19.390;2022-12-10T17:08:06;48.63;;;17.35;;